首页
METAR-TAF:

METAR-TAF

机场 :

布里夫拉盖亚尔德, 法国

纬度: 45-02-28N, 经度: 001-28-59E, 海拔: 311米

当前天气观测

该预报发布于35分钟前的07:30 UTC
静风
温度 4°C
湿度 100%
气压 1008 hPa
能見度: 9000
阴天层高于400英尺

METAR: LFSL 170730Z AUTO 00000KT 9000 OVC004 04/04 Q1008 TEMPO 4000 BR BECMG BKN013

时间: 09:05 (08:05 UTC)

预报

该预报发布于3小时和5分钟前的05:00 UTC
预报有效从17日的 06点(UTC)到 17日的 15点(UTC)
风速3节,风向多变
能见度10公里或以上
多云层高于3000英尺
几率 40% :
短暂存在
从 17日的 06点(UTC)到 17日的 09点(UTC)
能見度: 4000
多云层高于300英尺
轻雾
成为
从 17日的 09点(UTC)到 17日的 11点(UTC)
多云层高于1300英尺
成为
从 17日的 12点(UTC)到 17日的 14点(UTC)
多云层高于3000英尺

TAF: LFSL 170500Z 1706/1715 VRB03KT 9999 BKN030 PROB40 TEMPO 1706/1709 4000 BR BKN003 BECMG 1709/1711 BKN013 BECMG 1712/1714 BKN030

超过4000个机场的气象观测和天气预报(METAR&TAF报告)。

可查询的气象台以黄色和红色小点在地图上表示。

将鼠标移到小点上方,可查看气象台名称。

然后点击查看天气观测和预报。

如需切换地图:点击带黑十字的绿色按钮放大地图;点击带横线的绿色按钮缩小地图;或者点击绿色箭头查看邻近地区的地图。


METAR-TAF: